MiSS Karli — WDF5923 — position and weather

sailwx.info

Track history (hours):
 
Tides and Currents Weather Stations Pressure Air Temp Water Temp Dewpoint Dewpoint Depression Visibility Wind Speed Wind Dir Waves Ship Positions

MiSS Karli

Owner: Crosby Marine Transportation LLC, Golden Meadow, LA. More information available from US FCC via Universal Licensing System and Coast Guard Vessel Documentation Center.

Last reported at 2017-Sep-21 15:51 UTC. Time now 2017-Sep-22 10:06 UTC.
Position N 29°35' W 094°56'.

Length 20 m; draft 8.5 m.

Type: Towing. MMSI: 367468730.

Date/timePositionNaut miles runAvg speedWind from/ knotsBaromVisibWave heightAir tempDewpointWater temp
2017-Sep-21 15:51N 29°35' W 094°56'2 6.6
2017-Sep-21 15:30N 29°36' W 094°57'3 6.8
2017-Sep-21 15:00N 29°40' W 094°58'3 6.2
2017-Sep-21 14:29N 29°42' W 095°01'3 5.8
2017-Sep-21 13:56N 29°44' W 095°03'3 3.1
2017-Sep-21 12:56N 29°47' W 095°05'0 0.1
2017-Sep-21 12:17N 29°47' W 095°05'1 0.7
2017-Sep-21 11:11N 29°48' W 095°04'0 0.0
2017-Sep-21 10:41N 29°48' W 095°04'0 0.0
2017-Sep-21 10:17N 29°48' W 095°04'0 0.0
2017-Sep-21 09:56N 29°48' W 095°04'0 0.0
2017-Sep-21 06:32N 29°48' W 095°04'0 0.0
2017-Sep-21 06:17N 29°48' W 095°04'0 0.0
2017-Sep-21 05:56N 29°48' W 095°04'0 0.0
2017-Sep-21 05:29N 29°48' W 095°04'0 0.0
2017-Sep-21 03:51N 29°48' W 095°04'1 0.1
2017-Sep-20 00:53N 29°46' W 095°05'9 0.4
2017-Sep-19 03:22N 29°43' W 095°14'0 0.0
2017-Sep-19 02:31N 29°43' W 095°14'0 0.0
2017-Sep-18 19:40N 29°43' W 095°14'3 0.1
2017-Sep-17 20:54N 29°45' W 095°11'2 4.8
2017-Sep-17 20:25N 29°44' W 095°09'2 5.2
2017-Sep-17 19:59N 29°45' W 095°06'  
Track history (hours):
 
Tides and Currents Weather Stations Pressure Air Temp Water Temp Dewpoint Dewpoint Depression Visibility Wind Speed Wind Dir Waves Ship Positions

MiSS Karli

Owner: Crosby Marine Transportation LLC, Golden Meadow, LA. More information available from US FCC via Universal Licensing System and Coast Guard Vessel Documentation Center.

Last reported at 2017-Sep-21 15:51 UTC. Time now 2017-Sep-22 10:06 UTC.
Position N 29°35' W 094°56'.

Length 20 m; draft 8.5 m.

Type: Towing. MMSI: 367468730.

Date/timePositionNaut miles runAvg speedWind from/ knotsBaromVisibWave heightAir tempDewpointWater temp
2017-Sep-21 15:51N 29°35' W 094°56'2 6.6
2017-Sep-21 15:30N 29°36' W 094°57'3 6.8
2017-Sep-21 15:00N 29°40' W 094°58'3 6.2
2017-Sep-21 14:29N 29°42' W 095°01'3 5.8
2017-Sep-21 13:56N 29°44' W 095°03'3 3.1
2017-Sep-21 12:56N 29°47' W 095°05'0 0.1
2017-Sep-21 12:17N 29°47' W 095°05'1 0.7
2017-Sep-21 11:11N 29°48' W 095°04'0 0.0
2017-Sep-21 10:41N 29°48' W 095°04'0 0.0
2017-Sep-21 10:17N 29°48' W 095°04'0 0.0
2017-Sep-21 09:56N 29°48' W 095°04'0 0.0
2017-Sep-21 06:32N 29°48' W 095°04'0 0.0
2017-Sep-21 06:17N 29°48' W 095°04'0 0.0
2017-Sep-21 05:56N 29°48' W 095°04'0 0.0
2017-Sep-21 05:29N 29°48' W 095°04'0 0.0
2017-Sep-21 03:51N 29°48' W 095°04'1 0.1
2017-Sep-20 00:53N 29°46' W 095°05'9 0.4
2017-Sep-19 03:22N 29°43' W 095°14'0 0.0
2017-Sep-19 02:31N 29°43' W 095°14'0 0.0
2017-Sep-18 19:40N 29°43' W 095°14'3 0.1
2017-Sep-17 20:54N 29°45' W 095°11'2 4.8
2017-Sep-17 20:25N 29°44' W 095°09'2 5.2
2017-Sep-17 19:59N 29°45' W 095°06'  

Dump ship's entire track history